»·PEaware :: ASA247 KGEG-KSEA

ASA247 :: KGEG-KSEA

FLIGHT INFORMATION

Flight Status: Arrived
Operator:
Alaska Airlines
More flights by this operator :: More flights under this callsign
Pilot: Walter P. (10403)
Aircraft: BOEING 737-200
(B732)
More flights by this aircraft type
Origin: KGEG Spokane Intl
United States
Destination: KSEA Seattle-Tacoma Intl
United States
More flights between these airports :: More routes between these airports
Route: +GEG6 TEMPL GLASR1
File this flight plan on PilotEdge
Remarks:
Altitude:
(Current/Filed)
28,000ft
Speed:
(Current/Filed)
440kts
Departed: 13-Jul-19 04:56 PM
Arrived: 13-Jul-19 05:42 PM
Distance/Time
Traveled:
193nm/0:45
Distance/Time
To Go:
Arrived

Flight Plot

Page will automatically refresh every two minutes.


Map Options




Map Legend


Flown Route
Filed Route
Departure Airport
Arrival Airport
Navaid (VOR, NDB)
Fix

Horizontal Profiles

Position Reports

Time Latitude Longitude Heading Altitude Ground
Speed
13-Jul-19 16:22 47.623394 -117.539253 0 2364ft 0kts
13-Jul-19 16:23 47.623394 -117.539253 0 2364ft 0kts
13-Jul-19 16:24 47.623394 -117.539253 0 2364ft 0kts
13-Jul-19 16:25 47.623394 -117.539253 0 2364ft 0kts
13-Jul-19 16:26 47.623394 -117.539253 0 2364ft 0kts
13-Jul-19 16:27 47.623394 -117.539251 359 2364ft 0kts
13-Jul-19 16:28 47.623394 -117.539251 359 2364ft 0kts
13-Jul-19 16:29 47.623394 -117.539251 359 2364ft 0kts
13-Jul-19 16:30 47.623394 -117.539251 359 2364ft 0kts
13-Jul-19 16:31 47.623394 -117.539251 359 2364ft 0kts
13-Jul-19 16:32 47.623394 -117.539251 359 2364ft 0kts
13-Jul-19 16:33 47.623394 -117.539251 359 2364ft 0kts
13-Jul-19 16:34 47.623394 -117.539251 359 2364ft 0kts
13-Jul-19 16:35 47.623394 -117.539251 359 2364ft 0kts
13-Jul-19 16:36 47.623394 -117.539251 359 2364ft 0kts
13-Jul-19 16:37 47.623394 -117.539251 359 2364ft 0kts
13-Jul-19 16:38 47.623394 -117.539251 359 2364ft 0kts
13-Jul-19 16:39 47.623394 -117.539251 359 2364ft 0kts
13-Jul-19 16:39 47.623394 -117.539251 359 2364ft 0kts
13-Jul-19 16:41 47.623394 -117.539251 359 2364ft 0kts
13-Jul-19 16:42 47.623394 -117.539251 359 2364ft 0kts
13-Jul-19 16:42 47.623394 -117.539251 359 2364ft 0kts
13-Jul-19 16:44 47.623394 -117.539251 359 2364ft 0kts
13-Jul-19 16:44 47.623394 -117.539251 359 2364ft 0kts
13-Jul-19 16:45 47.623394 -117.539251 359 2364ft 0kts
13-Jul-19 16:47 47.623250 -117.539249 359 2363ft 2kts
13-Jul-19 16:47 47.622770 -117.539387 43 2363ft 2kts
13-Jul-19 16:48 47.622649 -117.539829 91 2364ft 0kts
13-Jul-19 16:50 47.622649 -117.539829 91 2364ft 0kts
13-Jul-19 16:50 47.622649 -117.539829 91 2364ft 0kts
13-Jul-19 16:51 47.622103 -117.537321 138 2360ft 15kts
13-Jul-19 16:52 47.624636 -117.532215 44 2356ft 20kts
13-Jul-19 16:53 47.629328 -117.525162 48 2341ft 28kts
13-Jul-19 16:54 47.631741 -117.519264 137 2326ft 10kts
13-Jul-19 16:55 47.629551 -117.520787 226 2334ft 53kts
13-Jul-19 16:56 47.602899 -117.561594 229 3198ft 179kts
13-Jul-19 16:57 47.564902 -117.620084 224 5189ft 214kts
13-Jul-19 16:58 47.517633 -117.689460 224 7098ft 260kts
13-Jul-19 16:59 47.493797 -117.785556 285 9592ft 283kts
13-Jul-19 17:00 47.512786 -117.898765 277 11840ft 302kts
13-Jul-19 17:01 47.531148 -118.026507 277 13616ft 333kts
13-Jul-19 17:02 47.550522 -118.162272 276 15843ft 340kts
13-Jul-19 17:03 47.570073 -118.300657 275 17845ft 347kts
13-Jul-19 17:04 47.589867 -118.442310 275 19626ft 356kts
13-Jul-19 17:05 47.609979 -118.587493 275 21340ft 364kts
13-Jul-19 17:06 47.630114 -118.734243 274 22851ft 371kts
13-Jul-19 17:07 47.650555 -118.884498 274 24399ft 367kts
13-Jul-19 17:08 47.670196 -119.030537 273 25989ft 358kts
13-Jul-19 17:09 47.689223 -119.173658 274 27429ft 349kts
13-Jul-19 17:10 47.708011 -119.316710 274 27955ft 366kts
13-Jul-19 17:11 47.728272 -119.470913 276 27949ft 395kts
13-Jul-19 17:12 47.741743 -119.632205 270 27942ft 396kts
13-Jul-19 17:13 47.754239 -119.792203 270 27948ft 392kts
13-Jul-19 17:14 47.766536 -119.951967 270 27948ft 390kts
13-Jul-19 17:15 47.778637 -120.112237 270 27944ft 390kts
13-Jul-19 17:16 47.790511 -120.272539 270 27937ft 391kts
13-Jul-19 17:17 47.802200 -120.433361 270 27936ft 391kts
13-Jul-19 17:18 47.813659 -120.594171 270 27931ft 388kts
13-Jul-19 17:19 47.824552 -120.750380 269 26103ft 378kts
13-Jul-19 17:20 47.834117 -120.890002 270 24344ft 372kts
13-Jul-19 17:21 47.843635 -121.031471 270 22577ft 365kts
13-Jul-19 17:22 47.853380 -121.179092 271 20384ft 353kts
13-Jul-19 17:23 47.862651 -121.322390 271 17645ft 343kts
13-Jul-19 17:24 47.871473 -121.461785 272 14940ft 335kts
13-Jul-19 17:25 47.879934 -121.597066 273 13386ft 302kts
13-Jul-19 17:26 47.870213 -121.712542 232 11502ft 286kts
13-Jul-19 17:27 47.816428 -121.797513 224 9619ft 279kts
13-Jul-19 17:28 47.761228 -121.875237 221 7897ft 270kts
13-Jul-19 17:29 47.706318 -121.947172 222 6996ft 257kts
13-Jul-19 17:30 47.654506 -122.016423 222 7005ft 258kts
13-Jul-19 17:31 47.601623 -122.087418 222 6407ft 260kts
13-Jul-19 17:32 47.548718 -122.158350 222 5190ft 256kts
13-Jul-19 17:33 47.526250 -122.245837 285 3761ft 233kts
13-Jul-19 17:34 47.533110 -122.335909 262 2034ft 226kts
13-Jul-19 17:35 47.538109 -122.418234 322 3269ft 233kts
13-Jul-19 17:36 47.599395 -122.410174 55 3606ft 256kts
13-Jul-19 17:37 47.590277 -122.317665 142 2799ft 244kts
13-Jul-19 17:38 47.527907 -122.307039 183 1536ft 233kts
13-Jul-19 17:39 47.472020 -122.307636 182 774ft 155kts
13-Jul-19 17:40 47.442678 -122.307967 180 478ft 49kts
13-Jul-19 17:41 47.439022 -122.306712 92 478ft 0kts
13-Jul-19 17:42 47.440623 -122.306362 359 478ft 21kts
13-Jul-19 17:43 47.444471 -122.306350 0 478ft 13kts
13-Jul-19 17:44 47.447645 -122.304457 92 478ft 5kts
13-Jul-19 17:45 47.447844 -122.302664 41 478ft 0kts
13-Jul-19 17:46 47.447844 -122.302665 41 478ft 0kts

Navigation Log

Ident Type
Flight plan parsing failed, navigation log unavailable